createdAt,value
2022-12-01T00:01:26.732Z,102514.81
2022-12-01T00:03:54.575Z,102510.34
2022-12-01T00:06:22.472Z,102514.81
2022-12-01T00:09:12.979Z,102510.28
2022-12-01T00:11:42.815Z,102504.94
2022-12-01T00:14:10.376Z,102506.66
2022-12-01T00:16:38.568Z,102503.94
2022-12-01T00:19:06.142Z,102512.69
2022-12-01T00:21:33.665Z,102522.41
2022-12-01T00:24:01.233Z,102524.13
2022-12-01T00:26:28.867Z,102517.88
2022-12-01T00:28:59.865Z,102523.19
2022-12-01T00:31:27.866Z,102528.56
2022-12-01T00:33:55.632Z,102535.59
2022-12-01T00:36:24.188Z,102533.75
2022-12-01T00:38:53.704Z,102534.50
2022-12-01T00:41:22.291Z,102537.16
2022-12-01T00:43:51.243Z,102541.72
2022-12-01T00:46:18.918Z,102536.41
2022-12-01T00:48:46.587Z,102539.06
2022-12-01T00:51:14.330Z,102535.44
2022-12-01T00:53:42.548Z,102534.53
2022-12-01T00:56:10.288Z,102539.00
2022-12-01T00:58:37.926Z,102539.94
2022-12-01T01:01:05.984Z,102546.09
2022-12-01T01:03:34.623Z,102542.63
2022-12-01T01:06:08.171Z,102553.25
2022-12-01T01:08:36.263Z,102549.75
2022-12-01T01:11:04.861Z,102549.81
2022-12-01T01:13:33.348Z,102550.78
2022-12-01T01:16:03.851Z,102557.81
2022-12-01T01:18:32.296Z,102555.16
2022-12-01T01:21:07.038Z,102546.28
2022-12-01T01:23:34.996Z,102551.66
2022-12-01T01:26:13.658Z,102555.25
2022-12-01T01:28:41.787Z,102549.97
2022-12-01T01:31:12.391Z,102546.53
2022-12-01T01:33:40.346Z,102552.81
2022-12-01T01:36:08.664Z,102549.34
2022-12-01T01:38:37.272Z,102552.91
2022-12-01T01:41:07.372Z,102542.22
2022-12-01T01:43:39.316Z,102543.16
2022-12-01T01:46:08.556Z,102540.59
2022-12-01T01:48:38.610Z,102541.59
2022-12-01T01:51:07.964Z,102528.44
2022-12-01T01:53:35.951Z,102529.41
2022-12-01T01:56:04.996Z,102522.44
2022-12-01T01:58:33.655Z,102526.13
2022-12-01T02:01:01.389Z,102519.16
2022-12-01T02:03:30.187Z,102521.81
2022-12-01T02:06:03.430Z,102527.94
2022-12-01T02:08:35.779Z,102518.06
2022-12-01T02:11:31.433Z,102519.72
2022-12-01T02:14:16.169Z,102521.47
2022-12-01T02:17:01.885Z,102519.63
2022-12-01T02:20:09.414Z,102520.47
2022-12-01T02:23:28.335Z,102518.56
2022-12-01T02:26:20.481Z,102522.06
2022-12-01T02:29:15.240Z,102528.31
2022-12-01T02:32:16.469Z,102525.66
2022-12-01T02:34:55.690Z,102519.53
2022-12-01T02:37:27.069Z,102514.31
2022-12-01T02:40:18.120Z,102509.81
2022-12-01T02:43:05.878Z,102514.19
2022-12-01T02:45:43.699Z,102507.16
2022-12-01T02:48:39.324Z,102510.72
2022-12-01T02:51:15.175Z,102498.31
2022-12-01T02:53:43.247Z,102496.59
2022-12-01T02:56:13.416Z,102494.78
2022-12-01T02:58:41.916Z,102493.00
2022-12-01T03:01:38.673Z,102477.16
2022-12-01T03:04:32.937Z,102483.41
2022-12-01T03:07:09.294Z,102488.72
2022-12-01T03:10:04.123Z,102486.09
2022-12-01T03:12:46.372Z,102496.72
2022-12-01T03:15:45.293Z,102500.22
2022-12-01T03:18:50.910Z,102505.59
2022-12-01T03:21:30.980Z,102500.22
2022-12-01T03:24:26.448Z,102491.25
2022-12-01T03:26:57.431Z,102497.53
2022-12-01T03:29:33.710Z,102499.38
2022-12-01T03:32:08.407Z,102498.56
2022-12-01T03:34:35.916Z,102502.09
2022-12-01T03:37:10.637Z,102497.66
2022-12-01T03:39:40.249Z,102500.31
2022-12-01T03:42:39.140Z,102504.66
2022-12-01T03:45:19.790Z,102505.50
2022-12-01T03:47:47.376Z,102508.03
2022-12-01T03:50:18.642Z,102505.25
2022-12-01T03:53:11.358Z,102497.16
2022-12-01T03:55:46.805Z,102497.22
2022-12-01T03:58:23.011Z,102499.06
2022-12-01T04:00:53.454Z,102493.75
2022-12-01T04:03:24.870Z,102507.91
2022-12-01T04:05:52.619Z,102499.00
2022-12-01T04:08:20.693Z,102491.03
2022-12-01T04:10:48.243Z,102498.03
2022-12-01T04:13:25.679Z,102499.66
2022-12-01T04:15:55.151Z,102497.00
2022-12-01T04:18:22.772Z,102497.09
2022-12-01T04:20:50.660Z,102508.53
2022-12-01T04:23:36.679Z,102497.91
2022-12-01T04:26:05.247Z,102504.13
2022-12-01T04:28:32.930Z,102500.56
2022-12-01T04:31:00.575Z,102499.63
2022-12-01T04:33:29.565Z,102497.81
2022-12-01T04:36:00.910Z,102490.72
2022-12-01T04:38:30.742Z,102504.84
2022-12-01T04:40:58.854Z,102506.53
2022-12-01T04:43:26.515Z,102501.16
2022-12-01T04:45:53.999Z,102495.91
2022-12-01T04:48:21.488Z,102495.03
2022-12-01T04:50:49.976Z,102494.19
2022-12-01T04:53:17.538Z,102493.50
2022-12-01T04:55:45.132Z,102493.44
2022-12-01T04:58:13.071Z,102492.59
2022-12-01T05:00:40.892Z,102491.66
2022-12-01T05:03:13.543Z,102489.03
2022-12-01T05:05:42.676Z,102490.78
2022-12-01T05:08:10.736Z,102495.97
2022-12-01T05:10:39.091Z,102490.59
2022-12-01T05:13:06.692Z,102498.44
2022-12-01T05:15:34.332Z,102502.03
2022-12-01T05:18:01.934Z,102501.16
2022-12-01T05:20:48.522Z,102491.56
2022-12-01T05:23:17.144Z,102497.00
2022-12-01T05:25:44.899Z,102498.81
2022-12-01T05:28:12.651Z,102497.91
2022-12-01T05:30:40.935Z,102495.25
2022-12-01T05:33:08.534Z,102497.81
2022-12-01T05:35:36.144Z,102495.16
2022-12-01T05:38:07.811Z,102502.19
2022-12-01T05:40:37.040Z,102495.16
2022-12-01T05:43:04.952Z,102503.94
2022-12-01T05:45:33.745Z,102497.66
2022-12-01T05:48:02.241Z,102502.06
2022-12-01T05:50:31.048Z,102495.03
2022-12-01T05:52:58.606Z,102502.97
2022-12-01T05:55:26.247Z,102498.53
2022-12-01T05:57:53.800Z,102500.22
2022-12-01T06:00:21.456Z,102509.06
2022-12-01T06:02:49.168Z,102512.56
2022-12-01T06:05:16.967Z,102507.25
2022-12-01T06:07:44.570Z,102497.50
2022-12-01T06:10:12.897Z,102495.75
2022-12-01T06:12:40.462Z,102495.66
2022-12-01T06:15:08.631Z,102501.78
2022-12-01T06:17:40.227Z,102503.47
2022-12-01T06:20:09.284Z,102507.75
2022-12-01T06:22:36.927Z,102500.72
2022-12-01T06:25:04.837Z,102500.63
2022-12-01T06:27:32.554Z,102500.59
2022-12-01T06:30:00.196Z,102495.34
2022-12-01T06:32:27.684Z,102499.66
2022-12-01T06:34:55.238Z,102495.28
2022-12-01T06:37:22.831Z,102496.09
2022-12-01T06:39:50.819Z,102496.16
2022-12-01T06:42:18.633Z,102480.28
2022-12-01T06:44:46.418Z,102485.72
2022-12-01T06:47:15.570Z,102488.50
2022-12-01T06:49:43.248Z,102496.47
2022-12-01T06:52:10.819Z,102495.66
2022-12-01T06:54:39.702Z,102498.31
2022-12-01T06:57:07.614Z,102498.28
2022-12-01T06:59:35.351Z,102508.06
2022-12-01T07:02:03.295Z,102514.25
2022-12-01T07:04:31.203Z,102519.50
2022-12-01T07:06:58.997Z,102521.22
2022-12-01T07:09:26.526Z,102522.03
2022-12-01T07:11:54.098Z,102524.63
2022-12-01T07:14:26.810Z,102516.66
2022-12-01T07:16:54.716Z,102520.13
2022-12-01T07:19:22.352Z,102521.84
2022-12-01T07:21:50.366Z,102517.38
2022-12-01T07:24:18.140Z,102521.75
2022-12-01T07:26:45.734Z,102518.19
2022-12-01T07:29:13.359Z,102527.88
2022-12-01T07:31:41.007Z,102523.25
2022-12-01T07:34:12.937Z,102519.59
2022-12-01T07:36:40.545Z,102516.94
2022-12-01T07:39:08.770Z,102512.56
2022-12-01T07:41:36.467Z,102511.69
2022-12-01T07:44:04.217Z,102517.81
2022-12-01T07:46:32.078Z,102521.25
2022-12-01T07:49:00.481Z,102518.56
2022-12-01T07:51:29.150Z,102519.34
2022-12-01T07:53:56.745Z,102519.47
2022-12-01T07:56:24.412Z,102525.66
2022-12-01T07:58:52.152Z,102525.66
2022-12-01T08:01:22.791Z,102529.09
2022-12-01T08:03:52.353Z,102535.28
2022-12-01T08:06:20.638Z,102526.41
2022-12-01T08:08:49.243Z,102525.38
2022-12-01T08:11:20.149Z,102522.69
2022-12-01T08:13:47.828Z,102530.66
2022-12-01T08:16:17.810Z,102525.25
2022-12-01T08:18:46.034Z,102535.03
2022-12-01T08:21:15.931Z,102531.44
2022-12-01T08:23:44.290Z,102532.31
2022-12-01T08:26:17.239Z,102538.41
2022-12-01T08:28:46.280Z,102544.53
2022-12-01T08:31:19.119Z,102548.06
2022-12-01T08:33:48.459Z,102547.84
2022-12-01T08:36:16.731Z,102546.88
2022-12-01T08:38:45.573Z,102556.47
2022-12-01T08:41:14.239Z,102557.19
2022-12-01T08:44:00.448Z,102559.91
2022-12-01T08:46:32.786Z,102561.69
2022-12-01T08:49:01.409Z,102566.16
2022-12-01T08:51:29.220Z,102566.06
2022-12-01T08:53:58.202Z,102567.81
2022-12-01T08:56:32.674Z,102566.03
2022-12-01T08:59:00.862Z,102572.06
2022-12-01T09:01:29.299Z,102568.41
2022-12-01T09:04:10.716Z,102567.47
2022-12-01T09:06:43.560Z,102574.34
2022-12-01T09:09:14.616Z,102566.28
2022-12-01T09:11:46.254Z,102568.91
2022-12-01T09:14:16.238Z,102569.66
2022-12-01T09:16:46.550Z,102567.97
2022-12-01T09:19:22.143Z,102573.31
2022-12-01T09:21:51.695Z,102574.38
2022-12-01T09:24:19.602Z,102577.13
2022-12-01T09:26:47.461Z,102574.38
2022-12-01T09:29:16.728Z,102575.38
2022-12-01T09:31:45.017Z,102572.72
2022-12-01T09:34:15.852Z,102575.38
2022-12-01T09:36:44.441Z,102573.47
2022-12-01T09:39:14.989Z,102575.06
2022-12-01T09:41:54.587Z,102569.63
2022-12-01T09:44:39.433Z,102580.91
2022-12-01T09:47:26.605Z,102576.41
2022-12-01T09:50:03.318Z,102577.22
2022-12-01T09:52:42.201Z,102576.19
2022-12-01T09:55:15.523Z,102577.84
2022-12-01T09:57:46.830Z,102577.81
2022-12-01T10:00:21.222Z,102580.47
2022-12-01T10:02:56.234Z,102575.16
2022-12-01T10:05:29.220Z,102576.78
2022-12-01T10:08:02.367Z,102567.81
2022-12-01T10:11:05.891Z,102583.63
2022-12-01T10:13:34.221Z,102580.00
2022-12-01T10:16:11.364Z,102577.25
2022-12-01T10:18:56.256Z,102586.03
2022-12-01T10:21:40.869Z,102581.56
2022-12-01T10:24:14.461Z,102581.44
2022-12-01T10:27:21.876Z,102583.97
2022-12-01T10:29:54.802Z,102581.19
2022-12-01T10:32:38.124Z,102581.03
2022-12-01T10:35:07.101Z,102571.25
2022-12-01T10:37:34.877Z,102572.94
2022-12-01T10:40:02.737Z,102565.75
2022-12-01T10:42:50.705Z,102571.72
2022-12-01T10:45:27.287Z,102566.38
2022-12-01T10:48:10.364Z,102563.69
2022-12-01T10:50:38.164Z,102563.53
2022-12-01T10:53:05.798Z,102563.22
2022-12-01T10:55:43.437Z,102557.75
2022-12-01T10:58:17.455Z,102564.75
2022-12-01T11:01:00.591Z,102562.84
2022-12-01T11:03:31.904Z,102558.38
2022-12-01T11:06:03.404Z,102560.91
2022-12-01T11:08:52.601Z,102552.88
2022-12-01T11:11:23.828Z,102558.06
2022-12-01T11:13:51.735Z,102562.44
2022-12-01T11:16:41.553Z,102555.31
2022-12-01T11:19:27.363Z,102554.31
2022-12-01T11:21:58.464Z,102557.91
2022-12-01T11:24:33.782Z,102560.63
2022-12-01T11:27:01.961Z,102554.53
2022-12-01T11:29:39.672Z,102564.28
2022-12-01T11:32:29.594Z,102549.97
2022-12-01T11:35:14.960Z,102545.47
2022-12-01T11:38:27.930Z,102554.31
2022-12-01T11:40:51.712Z,102540.13
2022-12-01T11:43:41.543Z,102549.97
2022-12-01T11:46:11.610Z,102552.72
2022-12-01T11:48:39.288Z,102550.13
2022-12-01T11:51:09.481Z,102547.47
2022-12-01T11:53:42.687Z,102547.41
2022-12-01T11:56:31.581Z,102540.19
2022-12-01T11:59:02.679Z,102548.97
2022-12-01T12:01:45.344Z,102540.84
2022-12-01T12:04:37.376Z,102540.84
2022-12-01T12:07:35.061Z,102535.44
2022-12-01T12:10:24.514Z,102538.06
2022-12-01T12:13:13.443Z,102539.00
2022-12-01T12:15:50.142Z,102530.88
2022-12-01T12:18:27.282Z,102532.50
2022-12-01T12:20:57.880Z,102527.13
2022-12-01T12:23:57.386Z,102528.78
2022-12-01T12:26:57.775Z,102530.25
2022-12-01T12:29:52.231Z,102526.75
2022-12-01T12:32:25.639Z,102534.66
2022-12-01T12:35:17.234Z,102530.19
2022-12-01T12:37:44.855Z,102522.22
2022-12-01T12:40:30.326Z,102522.22
2022-12-01T12:43:22.695Z,102523.94
2022-12-01T12:46:11.433Z,102514.28
2022-12-01T12:49:12.154Z,102511.63
2022-12-01T12:52:02.602Z,102514.22
2022-12-01T12:54:47.975Z,102506.16
2022-12-01T12:57:25.825Z,102509.66
2022-12-01T12:59:58.002Z,102501.63
2022-12-01T13:02:44.520Z,102500.75
2022-12-01T13:05:25.854Z,102498.97
2022-12-01T13:08:16.848Z,102502.56
2022-12-01T13:10:58.174Z,102501.63
2022-12-01T13:13:46.316Z,102504.06
2022-12-01T13:16:19.710Z,102502.03
2022-12-01T13:18:53.755Z,102502.81
2022-12-01T13:21:22.882Z,102499.06
2022-12-01T13:23:52.905Z,102495.47
2022-12-01T13:26:22.605Z,102497.19
2022-12-01T13:28:53.858Z,102500.72
2022-12-01T13:31:23.009Z,102491.94
2022-12-01T13:34:01.917Z,102497.13
2022-12-01T13:36:47.656Z,102500.56
2022-12-01T13:39:28.071Z,102489.75
2022-12-01T13:42:17.073Z,102496.81
2022-12-01T13:44:53.017Z,102494.06
2022-12-01T13:47:20.671Z,102495.63
2022-12-01T13:49:50.823Z,102498.16
2022-12-01T13:52:21.669Z,102496.28
2022-12-01T13:55:12.091Z,102488.22
2022-12-01T13:57:50.464Z,102483.59
2022-12-01T14:00:24.217Z,102488.03
2022-12-01T14:03:10.817Z,102481.84
2022-12-01T14:06:09.015Z,102485.31
2022-12-01T14:08:46.297Z,102487.88
2022-12-01T14:11:22.006Z,102490.53
2022-12-01T14:13:49.591Z,102495.81
2022-12-01T14:16:17.441Z,102497.53
2022-12-01T14:18:56.886Z,102494.09
2022-12-01T14:21:47.046Z,102497.69
2022-12-01T14:24:34.374Z,102490.69
2022-12-01T14:27:03.549Z,102491.59
2022-12-01T14:29:38.544Z,102489.06
2022-12-01T14:32:09.204Z,102487.34
2022-12-01T14:34:38.224Z,102490.00
2022-12-01T14:37:16.825Z,102493.63
2022-12-01T14:39:56.407Z,102487.47
2022-12-01T14:43:03.790Z,102488.53
2022-12-01T14:45:39.365Z,102489.44
2022-12-01T14:48:25.165Z,102482.31
2022-12-01T14:51:09.799Z,102480.59
2022-12-01T14:53:44.571Z,102478.72
2022-12-01T14:56:16.736Z,102482.16
2022-12-01T14:59:01.619Z,102479.44
2022-12-01T15:01:34.123Z,102477.56
2022-12-01T15:04:04.738Z,102486.31
2022-12-01T15:06:34.761Z,102476.53
2022-12-01T15:09:33.333Z,102476.47
2022-12-01T15:12:06.966Z,102479.03
2022-12-01T15:14:46.637Z,102476.22
2022-12-01T15:17:31.379Z,102480.53
2022-12-01T15:19:59.386Z,102483.09
2022-12-01T15:22:31.808Z,102477.78
2022-12-01T15:25:29.029Z,102479.69
2022-12-01T15:28:12.071Z,102489.31
2022-12-01T15:30:41.733Z,102484.84
2022-12-01T15:33:28.411Z,102487.50
2022-12-01T15:36:00.442Z,102487.56
2022-12-01T15:38:37.384Z,102493.75
2022-12-01T15:44:03.609Z,102493.44
2022-12-01T15:46:34.497Z,102488.97
2022-12-01T15:49:16.484Z,102492.44
2022-12-01T15:51:44.770Z,102497.72
2022-12-01T15:54:26.458Z,102493.25
2022-12-01T15:56:56.218Z,102497.63
2022-12-01T15:59:49.297Z,102494.09
2022-12-01T16:02:20.217Z,102493.25
2022-12-01T16:04:49.664Z,102497.72
2022-12-01T16:07:17.589Z,102495.91
2022-12-01T16:09:58.916Z,102487.06
2022-12-01T16:12:33.058Z,102493.25
2022-12-01T16:15:00.592Z,102502.00
2022-12-01T16:17:40.473Z,102495.75
2022-12-01T16:20:31.725Z,102499.19
2022-12-01T16:23:02.909Z,102494.69
2022-12-01T16:25:48.844Z,102499.13
2022-12-01T16:28:36.447Z,102504.44
2022-12-01T16:31:06.051Z,102502.63
2022-12-01T16:33:39.184Z,102497.31
2022-12-01T16:36:07.193Z,102499.88
2022-12-01T16:38:34.958Z,102495.59
2022-12-01T16:41:15.895Z,102497.38
2022-12-01T16:44:05.497Z,102507.16
2022-12-01T16:46:32.089Z,102493.00
2022-12-01T16:48:59.780Z,102491.19
2022-12-01T16:51:35.624Z,102496.44
2022-12-01T16:54:10.497Z,102498.16
2022-12-01T16:56:38.109Z,102493.69
2022-12-01T16:59:05.871Z,102495.50
2022-12-01T17:01:33.566Z,102494.63
2022-12-01T17:04:06.030Z,102493.78
2022-12-01T17:06:36.186Z,102496.44
2022-12-01T17:09:03.895Z,102500.97
2022-12-01T17:11:32.671Z,102498.31
2022-12-01T17:14:00.309Z,102501.06
2022-12-01T17:16:28.143Z,102498.41
2022-12-01T17:18:55.941Z,102504.59
2022-12-01T17:21:23.534Z,102501.84
2022-12-01T17:23:51.150Z,102510.69
2022-12-01T17:26:20.588Z,102514.16
2022-12-01T17:28:48.646Z,102522.16
2022-12-01T17:31:16.770Z,102517.69
2022-12-01T17:33:44.468Z,102516.81
2022-12-01T17:36:13.917Z,102520.34
2022-12-01T17:38:46.140Z,102519.44
2022-12-01T17:41:16.951Z,102521.19
2022-12-01T17:43:44.830Z,102520.34
2022-12-01T17:46:13.227Z,102522.94
2022-12-01T17:48:43.682Z,102526.47
2022-12-01T17:51:13.532Z,102529.13
2022-12-01T17:53:41.468Z,102523.88
2022-12-01T17:56:10.719Z,102530.16
2022-12-01T17:58:38.736Z,102533.63
2022-12-01T18:01:12.559Z,102525.63
2022-12-01T18:03:41.415Z,102523.81
2022-12-01T18:06:09.368Z,102522.00
2022-12-01T18:08:37.916Z,102519.28
2022-12-01T18:11:10.054Z,102525.53
2022-12-01T18:13:39.437Z,102525.47
2022-12-01T18:16:15.700Z,102525.53
2022-12-01T18:18:43.736Z,102523.66
2022-12-01T18:21:16.836Z,102528.13
2022-12-01T18:23:51.334Z,102517.47
2022-12-01T18:26:21.944Z,102527.28
2022-12-01T18:28:58.132Z,102525.47
2022-12-01T18:31:26.685Z,102523.66
2022-12-01T18:33:54.265Z,102529.84
2022-12-01T18:36:24.403Z,102520.97
2022-12-01T18:38:53.574Z,102523.66
2022-12-01T18:41:21.245Z,102522.69
2022-12-01T18:43:49.382Z,102528.88
2022-12-01T18:46:18.968Z,102526.22
2022-12-01T18:48:48.780Z,102527.97
2022-12-01T18:51:16.346Z,102529.84
2022-12-01T18:53:45.545Z,102533.53
2022-12-01T18:56:15.426Z,102530.00
2022-12-01T18:58:43.231Z,102538.94
2022-12-01T19:01:25.557Z,102536.34
2022-12-01T19:03:55.506Z,102533.78
2022-12-01T19:06:23.885Z,102534.78
2022-12-01T19:08:52.809Z,102539.25
2022-12-01T19:11:21.007Z,102530.41
2022-12-01T19:13:48.772Z,102540.09
2022-12-01T19:16:18.007Z,102533.97
2022-12-01T19:18:46.312Z,102526.94
2022-12-01T19:21:16.886Z,102534.13
2022-12-01T19:23:46.433Z,102530.69
2022-12-01T19:26:17.057Z,102527.25
2022-12-01T19:28:45.859Z,102519.56
2022-12-01T19:31:17.776Z,102522.38
2022-12-01T19:33:46.094Z,102519.84
2022-12-01T19:36:20.086Z,102521.91
2022-12-01T19:38:48.776Z,102522.91
2022-12-01T19:41:16.947Z,102515.16
2022-12-01T19:43:44.679Z,102518.91
2022-12-01T19:46:15.740Z,102526.97
2022-12-01T19:48:45.629Z,102527.94
2022-12-01T19:51:22.318Z,102523.59
2022-12-01T19:53:50.827Z,102523.66
2022-12-01T19:56:18.527Z,102527.28
2022-12-01T19:58:46.417Z,102530.09
2022-12-01T20:01:16.208Z,102526.63
2022-12-01T20:03:49.326Z,102525.84
2022-12-01T20:06:20.161Z,102517.78
2022-12-01T20:08:47.846Z,102524.84
2022-12-01T20:11:15.895Z,102521.16
2022-12-01T20:13:45.618Z,102523.66
2022-12-01T20:16:22.947Z,102526.28
2022-12-01T20:18:51.762Z,102531.59
2022-12-01T20:21:25.719Z,102517.44
2022-12-01T20:24:01.369Z,102528.13
2022-12-01T20:26:42.490Z,102532.75
2022-12-01T20:29:20.846Z,102538.16
2022-12-01T20:31:50.223Z,102534.84
2022-12-01T20:34:27.315Z,102530.69
2022-12-01T20:36:56.898Z,102527.16
2022-12-01T20:39:24.855Z,102534.28
2022-12-01T20:41:52.839Z,102541.41
2022-12-01T20:44:21.533Z,102543.13
2022-12-01T20:46:49.541Z,102538.59
2022-12-01T20:49:18.536Z,102535.84
2022-12-01T20:51:47.588Z,102537.53
2022-12-01T20:54:27.878Z,102549.88
2022-12-01T20:56:55.913Z,102541.91
2022-12-01T20:59:23.520Z,102542.75
2022-12-01T21:01:51.170Z,102543.66
2022-12-01T21:04:18.845Z,102549.84
2022-12-01T21:06:47.380Z,102552.50
2022-12-01T21:09:15.111Z,102556.81
2022-12-01T21:12:07.003Z,102560.25
2022-12-01T21:14:37.839Z,102553.81
2022-12-01T21:17:32.115Z,102549.28
2022-12-01T21:20:21.452Z,102552.81
2022-12-01T21:22:51.253Z,102557.22
2022-12-01T21:25:22.392Z,102558.16
2022-12-01T21:27:50.414Z,102560.75
2022-12-01T21:30:21.097Z,102565.28
2022-12-01T21:32:49.674Z,102559.91
2022-12-01T21:35:22.808Z,102558.94
2022-12-01T21:37:58.278Z,102564.28
2022-12-01T21:40:27.149Z,102555.34
2022-12-01T21:42:56.533Z,102561.47
2022-12-01T21:45:29.923Z,102561.31
2022-12-01T21:48:13.051Z,102561.22
2022-12-01T21:50:40.704Z,102561.06
2022-12-01T21:53:16.253Z,102557.50
2022-12-01T21:55:46.349Z,102558.34
2022-12-01T21:58:36.390Z,102559.13
2022-12-01T22:01:16.875Z,102563.44
2022-12-01T22:03:46.084Z,102558.97
2022-12-01T22:06:30.846Z,102564.16
2022-12-01T22:09:02.475Z,102564.94
2022-12-01T22:11:31.233Z,102562.19
2022-12-01T22:14:22.057Z,102564.72
2022-12-01T22:16:59.825Z,102566.28
2022-12-01T22:19:33.431Z,102574.13
2022-12-01T22:22:15.728Z,102556.25
2022-12-01T22:24:44.688Z,102572.00
2022-12-01T22:27:37.211Z,102565.06
2022-12-01T22:30:08.037Z,102570.22
2022-12-01T22:32:40.473Z,102568.28
2022-12-01T22:35:07.997Z,102567.25
2022-12-01T22:37:46.707Z,102569.84
2022-12-01T22:40:32.740Z,102563.50
2022-12-01T22:43:18.383Z,102565.13
2022-12-01T22:46:00.683Z,102568.56
2022-12-01T22:48:28.255Z,102568.66
2022-12-01T22:51:21.632Z,102571.09
2022-12-01T22:53:50.031Z,102570.13
2022-12-01T22:56:17.492Z,102565.53
2022-12-01T22:58:45.048Z,102568.97
2022-12-01T23:01:28.592Z,102567.16
2022-12-01T23:04:15.256Z,102570.69
2022-12-01T23:06:55.001Z,102567.16
2022-12-01T23:09:26.545Z,102574.38
2022-12-01T23:12:00.105Z,102563.72
2022-12-01T23:14:28.422Z,102570.88
2022-12-01T23:17:05.570Z,102560.19
2022-12-01T23:19:34.723Z,102566.28
2022-12-01T23:22:02.555Z,102568.91
2022-12-01T23:24:33.896Z,102573.53
2022-12-01T23:27:02.198Z,102571.78
2022-12-01T23:29:30.475Z,102575.41
2022-12-01T23:31:58.134Z,102575.31
2022-12-01T23:34:25.793Z,102579.78
2022-12-01T23:36:53.564Z,102584.97
2022-12-01T23:39:30.252Z,102569.91
2022-12-01T23:41:57.868Z,102574.28
2022-12-01T23:44:40.932Z,102556.59
2022-12-01T23:47:34.682Z,102560.19
2022-12-01T23:50:04.428Z,102559.31
2022-12-01T23:52:35.538Z,102556.66
2022-12-01T23:55:14.581Z,102555.72
2022-12-01T23:57:43.055Z,102551.25
